sensor_id;sensor_type;location;lat;lon;timestamp;pressure;altitude;pressure_sealevel;temperature;humidity
11676;BME280;5894;42.768;23.404;2024-02-14T00:01:25;95364.66;;;6.79;100.00
11676;BME280;5894;42.768;23.404;2024-02-14T00:03:52;95371.75;;;6.78;100.00
11676;BME280;5894;42.768;23.404;2024-02-14T00:06:19;95366.78;;;6.77;100.00
11676;BME280;5894;42.768;23.404;2024-02-14T00:08:46;95370.44;;;6.76;100.00
11676;BME280;5894;42.768;23.404;2024-02-14T00:11:13;95370.69;;;6.79;100.00
11676;BME280;5894;42.768;23.404;2024-02-14T00:13:41;95375.09;;;6.84;100.00
11676;BME280;5894;42.768;23.404;2024-02-14T00:16:08;95377.41;;;6.85;100.00
11676;BME280;5894;42.768;23.404;2024-02-14T00:18:36;95378.41;;;6.89;100.00
11676;BME280;5894;42.768;23.404;2024-02-14T00:21:03;95385.44;;;6.94;100.00
11676;BME280;5894;42.768;23.404;2024-02-14T00:23:30;95377.63;;;6.89;100.00
11676;BME280;5894;42.768;23.404;2024-02-14T00:25:57;95386.69;;;6.96;100.00
11676;BME280;5894;42.768;23.404;2024-02-14T00:28:23;95383.31;;;6.96;100.00
11676;BME280;5894;42.768;23.404;2024-02-14T00:30:53;95389.28;;;7.02;100.00
11676;BME280;5894;42.768;23.404;2024-02-14T00:33:20;95385.09;;;7.00;100.00
11676;BME280;5894;42.768;23.404;2024-02-14T00:35:47;95396.59;;;7.05;100.00
11676;BME280;5894;42.768;23.404;2024-02-14T00:38:14;95392.41;;;7.04;100.00
11676;BME280;5894;42.768;23.404;2024-02-14T00:40:41;95387.94;;;7.04;100.00
11676;BME280;5894;42.768;23.404;2024-02-14T00:43:08;95393.88;;;7.10;100.00
11676;BME280;5894;42.768;23.404;2024-02-14T00:45:36;95391.03;;;7.06;100.00
11676;BME280;5894;42.768;23.404;2024-02-14T00:48:05;95381.69;;;7.00;100.00
11676;BME280;5894;42.768;23.404;2024-02-14T00:50:33;95388.53;;;6.96;100.00
11676;BME280;5894;42.768;23.404;2024-02-14T00:53:00;95379.97;;;6.90;100.00
11676;BME280;5894;42.768;23.404;2024-02-14T00:55:27;95388.47;;;6.82;100.00
11676;BME280;5894;42.768;23.404;2024-02-14T00:57:54;95393.88;;;6.91;100.00
11676;BME280;5894;42.768;23.404;2024-02-14T01:00:21;95397.78;;;6.93;100.00
11676;BME280;5894;42.768;23.404;2024-02-14T01:02:48;95395.16;;;6.93;100.00
11676;BME280;5894;42.768;23.404;2024-02-14T01:05:17;95400.41;;;6.93;100.00
11676;BME280;5894;42.768;23.404;2024-02-14T01:07:44;95399.88;;;6.91;100.00
11676;BME280;5894;42.768;23.404;2024-02-14T01:10:12;95398.75;;;6.97;100.00
11676;BME280;5894;42.768;23.404;2024-02-14T01:12:38;95391.75;;;6.93;100.00
11676;BME280;5894;42.768;23.404;2024-02-14T01:15:06;95392.06;;;6.86;100.00
11676;BME280;5894;42.768;23.404;2024-02-14T01:17:33;95392.44;;;6.98;100.00
11676;BME280;5894;42.768;23.404;2024-02-14T01:20:04;95382.09;;;6.88;100.00
11676;BME280;5894;42.768;23.404;2024-02-14T01:22:33;95384.66;;;6.93;100.00
11676;BME280;5894;42.768;23.404;2024-02-14T01:24:59;95393.72;;;7.01;100.00
11676;BME280;5894;42.768;23.404;2024-02-14T01:27:26;95392.41;;;7.04;100.00
11676;BME280;5894;42.768;23.404;2024-02-14T01:29:54;95394.25;;;7.03;100.00
11676;BME280;5894;42.768;23.404;2024-02-14T01:32:23;95390.69;;;6.94;100.00
11676;BME280;5894;42.768;23.404;2024-02-14T01:34:51;95383.59;;;6.94;100.00
11676;BME280;5894;42.768;23.404;2024-02-14T01:37:18;95385.16;;;6.95;100.00
11676;BME280;5894;42.768;23.404;2024-02-14T01:39:47;95388.50;;;7.01;100.00
11676;BME280;5894;42.768;23.404;2024-02-14T01:42:14;95363.88;;;6.78;100.00
11676;BME280;5894;42.768;23.404;2024-02-14T01:44:41;95391.38;;;6.99;100.00
11676;BME280;5894;42.768;23.404;2024-02-14T01:47:09;95385.91;;;6.96;100.00
11676;BME280;5894;42.768;23.404;2024-02-14T01:49:38;95392.44;;;6.98;100.00
11676;BME280;5894;42.768;23.404;2024-02-14T01:52:09;95399.25;;;6.99;100.00
11676;BME280;5894;42.768;23.404;2024-02-14T01:54:37;95392.94;;;7.00;100.00
11676;BME280;5894;42.768;23.404;2024-02-14T01:57:06;95344.31;;;6.71;100.00
11676;BME280;5894;42.768;23.404;2024-02-14T01:59:33;95395.28;;;7.02;100.00
11676;BME280;5894;42.768;23.404;2024-02-14T02:02:01;95393.19;;;7.04;100.00
11676;BME280;5894;42.768;23.404;2024-02-14T02:04:28;95396.63;;;6.99;100.00
11676;BME280;5894;42.768;23.404;2024-02-14T02:06:55;95399.25;;;6.99;100.00
11676;BME280;5894;42.768;23.404;2024-02-14T02:09:22;95402.44;;;6.96;100.00
11676;BME280;5894;42.768;23.404;2024-02-14T02:11:50;95397.25;;;6.91;100.00
11676;BME280;5894;42.768;23.404;2024-02-14T02:14:20;95397.81;;;6.88;100.00
11676;BME280;5894;42.768;23.404;2024-02-14T02:16:47;95394.16;;;6.89;100.00
11676;BME280;5894;42.768;23.404;2024-02-14T02:19:14;95395.44;;;6.92;100.00
11676;BME280;5894;42.768;23.404;2024-02-14T02:21:42;95405.69;;;6.88;100.00
11676;BME280;5894;42.768;23.404;2024-02-14T02:24:10;95401.31;;;6.84;100.00
11676;BME280;5894;42.768;23.404;2024-02-14T02:26:37;95396.09;;;6.79;100.00
11676;BME280;5894;42.768;23.404;2024-02-14T02:29:05;95411.00;;;6.83;100.00
11676;BME280;5894;42.768;23.404;2024-02-14T02:31:32;95404.25;;;6.77;100.00
11676;BME280;5894;42.768;23.404;2024-02-14T02:33:59;95417.50;;;6.86;100.00
11676;BME280;5894;42.768;23.404;2024-02-14T02:36:26;95413.63;;;6.83;100.00
11676;BME280;5894;42.768;23.404;2024-02-14T02:38:55;95417.34;;;6.77;100.00
11676;BME280;5894;42.768;23.404;2024-02-14T02:41:25;95413.28;;;6.66;100.00
11676;BME280;5894;42.768;23.404;2024-02-14T02:43:52;95425.50;;;6.76;100.00
11676;BME280;5894;42.768;23.404;2024-02-14T02:46:20;95424.81;;;6.65;100.00
11676;BME280;5894;42.768;23.404;2024-02-14T02:48:47;95431.34;;;6.68;100.00
11676;BME280;5894;42.768;23.404;2024-02-14T02:51:16;95428.47;;;6.69;100.00
11676;BME280;5894;42.768;23.404;2024-02-14T02:53:43;95425.56;;;6.71;100.00
11676;BME280;5894;42.768;23.404;2024-02-14T02:56:10;95432.56;;;6.75;100.00
11676;BME280;5894;42.768;23.404;2024-02-14T02:58:39;95431.03;;;6.74;100.00
11676;BME280;5894;42.768;23.404;2024-02-14T03:01:07;95442.50;;;6.78;100.00
11676;BME280;5894;42.768;23.404;2024-02-14T03:03:34;95444.84;;;6.80;100.00
11676;BME280;5894;42.768;23.404;2024-02-14T03:06:04;95446.06;;;6.87;100.00
11676;BME280;5894;42.768;23.404;2024-02-14T03:08:31;95454.00;;;6.82;100.00
11676;BME280;5894;42.768;23.404;2024-02-14T03:11:03;95449.47;;;6.88;100.00
11676;BME280;5894;42.768;23.404;2024-02-14T03:13:31;95449.53;;;6.83;100.00
11676;BME280;5894;42.768;23.404;2024-02-14T03:15:59;95456.91;;;6.81;100.00
11676;BME280;5894;42.768;23.404;2024-02-14T03:18:26;95452.44;;;6.81;100.00
11676;BME280;5894;42.768;23.404;2024-02-14T03:20:53;95461.34;;;6.80;100.00
11676;BME280;5894;42.768;23.404;2024-02-14T03:23:20;95468.41;;;6.85;100.00
11676;BME280;5894;42.768;23.404;2024-02-14T03:25:48;95472.06;;;6.84;100.00
11676;BME280;5894;42.768;23.404;2024-02-14T03:28:14;95475.75;;;6.83;100.00
11676;BME280;5894;42.768;23.404;2024-02-14T03:30:41;95474.19;;;6.82;100.00
11676;BME280;5894;42.768;23.404;2024-02-14T03:33:10;95475.47;;;6.84;100.00
11676;BME280;5894;42.768;23.404;2024-02-14T03:35:37;95474.13;;;6.87;100.00
11676;BME280;5894;42.768;23.404;2024-02-14T03:38:04;95480.91;;;6.88;100.00
11676;BME280;5894;42.768;23.404;2024-02-14T03:40:33;95486.91;;;6.93;100.00
11676;BME280;5894;42.768;23.404;2024-02-14T03:43:01;95487.69;;;6.94;100.00
11676;BME280;5894;42.768;23.404;2024-02-14T03:45:28;95484.00;;;6.95;100.00
11676;BME280;5894;42.768;23.404;2024-02-14T03:47:55;95479.88;;;6.89;100.00
11676;BME280;5894;42.768;23.404;2024-02-14T03:50:24;95435.13;;;6.56;100.00
11676;BME280;5894;42.768;23.404;2024-02-14T03:52:51;95494.03;;;6.88;100.00
11676;BME280;5894;42.768;23.404;2024-02-14T03:55:18;95496.81;;;6.96;100.00
11676;BME280;5894;42.768;23.404;2024-02-14T03:57:45;95491.03;;;6.99;100.00
11676;BME280;5894;42.768;23.404;2024-02-14T04:00:13;95485.00;;;6.99;100.00
11676;BME280;5894;42.768;23.404;2024-02-14T04:02:40;95485.09;;;6.89;100.00
11676;BME280;5894;42.768;23.404;2024-02-14T04:05:07;95492.25;;;6.83;100.00
11676;BME280;5894;42.768;23.404;2024-02-14T04:07:36;95499.84;;;6.85;100.00
11676;BME280;5894;42.768;23.404;2024-02-14T04:10:04;95500.91;;;6.84;100.00
11676;BME280;5894;42.768;23.404;2024-02-14T04:12:31;95500.13;;;6.83;100.00
11676;BME280;5894;42.768;23.404;2024-02-14T04:14:58;95493.88;;;6.79;100.00
11676;BME280;5894;42.768;23.404;2024-02-14T04:17:25;95491.53;;;6.78;100.00
11676;BME280;5894;42.768;23.404;2024-02-14T04:19:52;95504.06;;;6.81;100.00
11676;BME280;5894;42.768;23.404;2024-02-14T04:22:18;95463.19;;;6.56;100.00
11676;BME280;5894;42.768;23.404;2024-02-14T04:24:48;95505.09;;;6.85;100.00
11676;BME280;5894;42.768;23.404;2024-02-14T04:27:14;95507.13;;;6.88;100.00
11676;BME280;5894;42.768;23.404;2024-02-14T04:29:45;95505.84;;;6.85;100.00
11676;BME280;5894;42.768;23.404;2024-02-14T04:32:12;95512.75;;;6.76;100.00
11676;BME280;5894;42.768;23.404;2024-02-14T04:34:39;95517.72;;;6.78;100.00
11676;BME280;5894;42.768;23.404;2024-02-14T04:37:07;95525.66;;;6.73;100.00
11676;BME280;5894;42.768;23.404;2024-02-14T04:39:38;95519.13;;;6.70;100.00
11676;BME280;5894;42.768;23.404;2024-02-14T04:42:06;95524.34;;;6.70;100.00
11676;BME280;5894;42.768;23.404;2024-02-14T04:44:33;95522.84;;;6.64;100.00
11676;BME280;5894;42.768;23.404;2024-02-14T04:47:03;95533.34;;;6.64;100.00
11676;BME280;5894;42.768;23.404;2024-02-14T04:49:30;95528.66;;;6.61;100.00
11676;BME280;5894;42.768;23.404;2024-02-14T04:51:57;95532.59;;;6.58;100.00
11676;BME280;5894;42.768;23.404;2024-02-14T04:54:24;95545.69;;;6.58;100.00
11676;BME280;5894;42.768;23.404;2024-02-14T04:56:51;95548.38;;;6.53;100.00
11676;BME280;5894;42.768;23.404;2024-02-14T04:59:20;95549.44;;;6.52;100.00
11676;BME280;5894;42.768;23.404;2024-02-14T05:01:47;95548.66;;;6.47;100.00
11676;BME280;5894;42.768;23.404;2024-02-14T05:04:14;95557.38;;;6.42;100.00
11676;BME280;5894;42.768;23.404;2024-02-14T05:06:42;95557.38;;;6.42;100.00
11676;BME280;5894;42.768;23.404;2024-02-14T05:09:09;95553.25;;;6.31;100.00
11676;BME280;5894;42.768;23.404;2024-02-14T05:11:37;95558.72;;;6.35;100.00
11676;BME280;5894;42.768;23.404;2024-02-14T05:14:04;95565.53;;;6.36;100.00
11676;BME280;5894;42.768;23.404;2024-02-14T05:16:32;95574.44;;;6.35;100.00
11676;BME280;5894;42.768;23.404;2024-02-14T05:18:59;95572.13;;;6.33;100.00
11676;BME280;5894;42.768;23.404;2024-02-14T05:21:26;95573.44;;;6.31;100.00
11676;BME280;5894;42.768;23.404;2024-02-14T05:23:53;95579.41;;;6.36;100.00
11676;BME280;5894;42.768;23.404;2024-02-14T05:26:20;95583.84;;;6.36;100.00
11676;BME280;5894;42.768;23.404;2024-02-14T05:28:47;95583.84;;;6.36;100.00
11676;BME280;5894;42.768;23.404;2024-02-14T05:31:14;95591.78;;;6.31;100.00
11676;BME280;5894;42.768;23.404;2024-02-14T05:33:43;95594.91;;;6.33;100.00
11676;BME280;5894;42.768;23.404;2024-02-14T05:36:10;95606.66;;;6.35;100.00
11676;BME280;5894;42.768;23.404;2024-02-14T05:38:37;95577.69;;;6.21;100.00
11676;BME280;5894;42.768;23.404;2024-02-14T05:41:04;95604.81;;;6.36;100.00
11676;BME280;5894;42.768;23.404;2024-02-14T05:43:33;95614.50;;;6.35;100.00
11676;BME280;5894;42.768;23.404;2024-02-14T05:46:00;95610.31;;;6.34;100.00
11676;BME280;5894;42.768;23.404;2024-02-14T05:48:27;95618.69;;;6.36;100.00
11676;BME280;5894;42.768;23.404;2024-02-14T05:50:56;95618.41;;;6.38;100.00
11676;BME280;5894;42.768;23.404;2024-02-14T05:53:22;95596.50;;;6.23;100.00
11676;BME280;5894;42.768;23.404;2024-02-14T05:55:49;95614.78;;;6.34;100.00
11676;BME280;5894;42.768;23.404;2024-02-14T05:58:16;95624.72;;;6.37;100.00
11676;BME280;5894;42.768;23.404;2024-02-14T06:00:43;95626.53;;;6.41;100.00
11676;BME280;5894;42.768;23.404;2024-02-14T06:03:10;95627.84;;;6.39;100.00
11676;BME280;5894;42.768;23.404;2024-02-14T06:05:37;95636.50;;;6.39;100.00
11676;BME280;5894;42.768;23.404;2024-02-14T06:08:06;95635.72;;;6.39;100.00
11676;BME280;5894;42.768;23.404;2024-02-14T06:10:33;95645.41;;;6.38;100.00
11676;BME280;5894;42.768;23.404;2024-02-14T06:13:00;95641.22;;;6.37;100.00
11676;BME280;5894;42.768;23.404;2024-02-14T06:15:27;95646.19;;;6.39;100.00
11676;BME280;5894;42.768;23.404;2024-02-14T06:17:54;95651.19;;;6.35;100.00
11676;BME280;5894;42.768;23.404;2024-02-14T06:20:21;95643.31;;;6.35;100.00
11676;BME280;5894;42.768;23.404;2024-02-14T06:22:48;95651.44;;;6.34;100.00
11676;BME280;5894;42.768;23.404;2024-02-14T06:25:16;95653.31;;;6.28;100.00
11676;BME280;5894;42.768;23.404;2024-02-14T06:27:43;95655.94;;;6.33;100.00
11676;BME280;5894;42.768;23.404;2024-02-14T06:30:11;95661.69;;;6.30;100.00
11676;BME280;5894;42.768;23.404;2024-02-14T06:32:38;95664.31;;;6.30;100.00
11676;BME280;5894;42.768;23.404;2024-02-14T06:35:06;95661.69;;;6.30;100.00
11676;BME280;5894;42.768;23.404;2024-02-14T06:37:33;95663.78;;;6.28;100.00
11676;BME280;5894;42.768;23.404;2024-02-14T06:40:00;95664.03;;;6.32;100.00
11676;BME280;5894;42.768;23.404;2024-02-14T06:42:28;95665.38;;;6.29;100.00
11676;BME280;5894;42.768;23.404;2024-02-14T06:44:55;95663.25;;;6.31;100.00
11676;BME280;5894;42.768;23.404;2024-02-14T06:47:22;95667.94;;;6.34;100.00
11676;BME280;5894;42.768;23.404;2024-02-14T06:49:49;95671.91;;;6.32;100.00
11676;BME280;5894;42.768;23.404;2024-02-14T06:52:16;95673.22;;;6.29;100.00
11676;BME280;5894;42.768;23.404;2024-02-14T06:54:43;95667.13;;;6.39;100.00
11676;BME280;5894;42.768;23.404;2024-02-14T06:57:11;95680.50;;;6.37;100.00
11676;BME280;5894;42.768;23.404;2024-02-14T06:59:39;95686.00;;;6.36;100.00
11676;BME280;5894;42.768;23.404;2024-02-14T07:02:06;95686.50;;;6.43;100.00
11676;BME280;5894;42.768;23.404;2024-02-14T07:04:33;95687.78;;;6.45;100.00
11676;BME280;5894;42.768;23.404;2024-02-14T07:07:00;95695.09;;;6.48;100.00
11676;BME280;5894;42.768;23.404;2024-02-14T07:09:27;95697.72;;;6.53;100.00
11676;BME280;5894;42.768;23.404;2024-02-14T07:11:54;95701.59;;;6.56;100.00
11676;BME280;5894;42.768;23.404;2024-02-14T07:14:22;95699.56;;;6.48;100.00
11676;BME280;5894;42.768;23.404;2024-02-14T07:16:50;95710.25;;;6.56;100.00
11676;BME280;5894;42.768;23.404;2024-02-14T07:19:18;95711.53;;;6.59;100.00
11676;BME280;5894;42.768;23.404;2024-02-14T07:21:44;95715.53;;;6.51;100.00
11676;BME280;5894;42.768;23.404;2024-02-14T07:24:11;95718.16;;;6.46;100.00
11676;BME280;5894;42.768;23.404;2024-02-14T07:26:38;95723.41;;;6.46;100.00
11676;BME280;5894;42.768;23.404;2024-02-14T07:29:06;95724.72;;;6.49;100.00
11676;BME280;5894;42.768;23.404;2024-02-14T07:31:33;95724.44;;;6.50;100.00
11676;BME280;5894;42.768;23.404;2024-02-14T07:34:02;95722.34;;;6.47;100.00
11676;BME280;5894;42.768;23.404;2024-02-14T07:36:29;95726.00;;;6.51;100.00
11676;BME280;5894;42.768;23.404;2024-02-14T07:38:56;95736.19;;;6.58;100.00
11676;BME280;5894;42.768;23.404;2024-02-14T07:41:23;95747.72;;;6.57;100.00
11676;BME280;5894;42.768;23.404;2024-02-14T07:43:50;95744.88;;;6.53;100.00
11676;BME280;5894;42.768;23.404;2024-02-14T07:46:18;95744.03;;;6.58;100.00
11676;BME280;5894;42.768;23.404;2024-02-14T07:48:45;95745.88;;;6.57;100.00
11676;BME280;5894;42.768;23.404;2024-02-14T07:51:15;95741.94;;;6.60;100.00
11676;BME280;5894;42.768;23.404;2024-02-14T07:53:42;95737.75;;;6.59;100.00
11676;BME280;5894;42.768;23.404;2024-02-14T07:56:09;95740.09;;;6.60;100.00
11676;BME280;5894;42.768;23.404;2024-02-14T07:58:36;95743.31;;;6.52;100.00
11676;BME280;5894;42.768;23.404;2024-02-14T08:01:03;95624.47;;;5.84;100.00
11676;BME280;5894;42.768;23.404;2024-02-14T08:03:30;95751.63;;;6.59;100.00
11676;BME280;5894;42.768;23.404;2024-02-14T08:05:57;95752.41;;;6.60;100.00
11676;BME280;5894;42.768;23.404;2024-02-14T08:08:27;95747.50;;;6.48;100.00
11676;BME280;5894;42.768;23.404;2024-02-14T08:10:54;95750.91;;;6.54;100.00
11676;BME280;5894;42.768;23.404;2024-02-14T08:13:21;95754.28;;;6.54;100.00
11676;BME280;5894;42.768;23.404;2024-02-14T08:15:48;95763.94;;;6.59;100.00
11676;BME280;5894;42.768;23.404;2024-02-14T08:18:15;95761.06;;;6.60;100.00
11676;BME280;5894;42.768;23.404;2024-02-14T08:20:42;95758.97;;;6.57;100.00
11676;BME280;5894;42.768;23.404;2024-02-14T08:23:09;95763.16;;;6.63;100.00
11676;BME280;5894;42.768;23.404;2024-02-14T08:25:37;95765.00;;;6.63;100.00
11676;BME280;5894;42.768;23.404;2024-02-14T08:28:05;95768.34;;;6.69;100.00
11676;BME280;5894;42.768;23.404;2024-02-14T08:30:33;95768.88;;;6.66;100.00
11676;BME280;5894;42.768;23.404;2024-02-14T08:33:00;95765.00;;;6.63;100.00
11676;BME280;5894;42.768;23.404;2024-02-14T08:35:27;95765.78;;;6.58;100.00
11676;BME280;5894;42.768;23.404;2024-02-14T08:37:53;95773.13;;;6.56;100.00
11676;BME280;5894;42.768;23.404;2024-02-14T08:40:20;95777.56;;;6.61;100.00
11676;BME280;5894;42.768;23.404;2024-02-14T08:42:49;95778.84;;;6.69;100.00
11676;BME280;5894;42.768;23.404;2024-02-14T08:45:16;95778.81;;;6.74;100.00
11676;BME280;5894;42.768;23.404;2024-02-14T08:47:43;95787.72;;;6.73;100.00
11676;BME280;5894;42.768;23.404;2024-02-14T08:50:10;95790.56;;;6.81;100.00
11676;BME280;5894;42.768;23.404;2024-02-14T08:52:37;95790.56;;;6.81;100.00
11676;BME280;5894;42.768;23.404;2024-02-14T08:55:05;95799.47;;;6.80;100.00
11676;BME280;5894;42.768;23.404;2024-02-14T08:57:36;95799.47;;;6.80;100.00
11676;BME280;5894;42.768;23.404;2024-02-14T09:00:06;95803.41;;;6.78;100.00
11676;BME280;5894;42.768;23.404;2024-02-14T09:02:35;95801.31;;;6.80;100.00
11676;BME280;5894;42.768;23.404;2024-02-14T09:05:03;95802.91;;;6.76;100.00
11676;BME280;5894;42.768;23.404;2024-02-14T09:07:31;95804.97;;;6.84;100.00
11676;BME280;5894;42.768;23.404;2024-02-14T09:09:59;95811.00;;;6.79;100.00
11676;BME280;5894;42.768;23.404;2024-02-14T09:12:26;95813.69;;;6.74;100.00
11676;BME280;5894;42.768;23.404;2024-02-14T09:14:53;95817.63;;;6.72;100.00
11676;BME280;5894;42.768;23.404;2024-02-14T09:17:21;95817.34;;;6.73;100.00
11676;BME280;5894;42.768;23.404;2024-02-14T09:19:48;95822.81;;;6.77;100.00
11676;BME280;5894;42.768;23.404;2024-02-14T09:22:17;95814.72;;;6.73;100.00
11676;BME280;5894;42.768;23.404;2024-02-14T09:24:47;95822.81;;;6.77;100.00
11676;BME280;5894;42.768;23.404;2024-02-14T09:27:14;95822.03;;;6.76;100.00
11676;BME280;5894;42.768;23.404;2024-02-14T09:29:40;95820.19;;;6.77;100.00
11676;BME280;5894;42.768;23.404;2024-02-14T09:32:07;95824.63;;;6.81;100.00
11676;BME280;5894;42.768;23.404;2024-02-14T09:34:36;95826.47;;;6.81;100.00
11676;BME280;5894;42.768;23.404;2024-02-14T09:37:03;95829.94;;;6.71;100.00
11676;BME280;5894;42.768;23.404;2024-02-14T09:39:32;95824.94;;;6.75;100.00
11676;BME280;5894;42.768;23.404;2024-02-14T09:42:08;95822.03;;;6.76;100.00
11676;BME280;5894;42.768;23.404;2024-02-14T09:44:35;95799.31;;;6.61;100.00
11676;BME280;5894;42.768;23.404;2024-02-14T09:47:05;95822.56;;;6.78;100.00
11676;BME280;5894;42.768;23.404;2024-02-14T09:49:37;95821.81;;;6.73;100.00
11676;BME280;5894;42.768;23.404;2024-02-14T09:52:10;95821.03;;;6.72;100.00
11676;BME280;5894;42.768;23.404;2024-02-14T09:54:43;95821.03;;;6.72;100.00
11676;BME280;5894;42.768;23.404;2024-02-14T09:57:11;95817.63;;;6.67;100.00
11676;BME280;5894;42.768;23.404;2024-02-14T09:59:41;95817.09;;;6.75;100.00
11676;BME280;5894;42.768;23.404;2024-02-14T10:02:09;95822.59;;;6.73;100.00
11676;BME280;5894;42.768;23.404;2024-02-14T10:04:38;95813.69;;;6.74;100.00
11676;BME280;5894;42.768;23.404;2024-02-14T10:07:05;95829.63;;;6.78;100.00
11676;BME280;5894;42.768;23.404;2024-02-14T10:09:40;95675.28;;;5.78;100.00
11676;BME280;5894;42.768;23.404;2024-02-14T10:12:07;95812.06;;;6.78;100.00
11676;BME280;5894;42.768;23.404;2024-02-14T10:14:35;95823.34;;;6.79;100.00
11676;BME280;5894;42.768;23.404;2024-02-14T10:17:03;95784.66;;;6.55;100.00
11676;BME280;5894;42.768;23.404;2024-02-14T10:19:30;95819.16;;;6.78;100.00
11676;BME280;5894;42.768;23.404;2024-02-14T10:22:00;95817.81;;;6.80;100.00
11676;BME280;5894;42.768;23.404;2024-02-14T10:24:28;95821.75;;;6.78;100.00
11676;BME280;5894;42.768;23.404;2024-02-14T10:26:56;95820.97;;;6.82;100.00
11676;BME280;5894;42.768;23.404;2024-02-14T10:29:23;95815.47;;;6.84;100.00
11676;BME280;5894;42.768;23.404;2024-02-14T10:31:50;95821.22;;;6.81;100.00
11676;BME280;5894;42.768;23.404;2024-02-14T10:34:18;95811.28;;;6.83;100.00
11676;BME280;5894;42.768;23.404;2024-02-14T10:36:45;95818.56;;;6.86;100.00
11676;BME280;5894;42.768;23.404;2024-02-14T10:39:18;95812.28;;;6.87;100.00
11676;BME280;5894;42.768;23.404;2024-02-14T10:41:48;95813.59;;;6.89;100.00
11676;BME280;5894;42.768;23.404;2024-02-14T10:44:16;95814.09;;;6.91;100.00
11676;BME280;5894;42.768;23.404;2024-02-14T10:46:44;95816.72;;;6.91;100.00
11676;BME280;5894;42.768;23.404;2024-02-14T10:49:14;95813.25;;;6.96;100.00
11676;BME280;5894;42.768;23.404;2024-02-14T10:51:43;95819.53;;;7.00;100.00
11676;BME280;5894;42.768;23.404;2024-02-14T10:54:15;95811.69;;;7.00;100.00
11676;BME280;5894;42.768;23.404;2024-02-14T10:56:46;95819.53;;;7.05;100.00
11676;BME280;5894;42.768;23.404;2024-02-14T10:59:17;95817.69;;;7.06;100.00
11676;BME280;5894;42.768;23.404;2024-02-14T11:01:46;95822.94;;;7.06;100.00
11676;BME280;5894;42.768;23.404;2024-02-14T11:04:14;95825.81;;;7.04;100.00
11676;BME280;5894;42.768;23.404;2024-02-14T11:06:45;95819.53;;;7.05;100.00
11676;BME280;5894;42.768;23.404;2024-02-14T11:09:12;95824.00;;;7.05;100.00
11676;BME280;5894;42.768;23.404;2024-02-14T11:11:42;95827.41;;;7.05;100.00
11676;BME280;5894;42.768;23.404;2024-02-14T11:14:10;95828.19;;;7.06;100.00
11676;BME280;5894;42.768;23.404;2024-02-14T11:16:38;95822.63;;;7.12;100.00
11676;BME280;5894;42.768;23.404;2024-02-14T11:19:06;95816.06;;;7.10;100.00
11676;BME280;5894;42.768;23.404;2024-02-14T11:21:35;95821.31;;;7.10;100.00
11676;BME280;5894;42.768;23.404;2024-02-14T11:24:07;95825.50;;;7.11;100.00
11676;BME280;5894;42.768;23.404;2024-02-14T11:26:38;95822.09;;;7.10;100.00
11676;BME280;5894;42.768;23.404;2024-02-14T11:29:07;95791.81;;;6.94;100.00
11676;BME280;5894;42.768;23.404;2024-02-14T11:31:36;95819.00;;;7.03;100.00
11676;BME280;5894;42.768;23.404;2024-02-14T11:34:04;95819.47;;;7.10;100.00
11676;BME280;5894;42.768;23.404;2024-02-14T11:36:32;95828.94;;;7.06;100.00
11676;BME280;5894;42.768;23.404;2024-02-14T11:39:03;95817.09;;;7.14;100.00
11676;BME280;5894;42.768;23.404;2024-02-14T11:41:32;95818.94;;;7.13;100.00
11676;BME280;5894;42.768;23.404;2024-02-14T11:44:01;95815.53;;;7.13;100.00
11676;BME280;5894;42.768;23.404;2024-02-14T11:46:31;95825.19;;;7.17;100.00
11676;BME280;5894;42.768;23.404;2024-02-14T11:48:58;95824.19;;;7.13;100.00
11676;BME280;5894;42.768;23.404;2024-02-14T11:51:28;95789.97;;;6.94;100.00
11676;BME280;5894;42.768;23.404;2024-02-14T11:53:56;95818.44;;;7.11;100.00
11676;BME280;5894;42.768;23.404;2024-02-14T11:56:24;95820.50;;;7.14;100.00
11676;BME280;5894;42.768;23.404;2024-02-14T11:58:51;95822.56;;;7.17;100.00
11676;BME280;5894;42.768;23.404;2024-02-14T12:01:18;95819.41;;;7.20;100.00
11676;BME280;5894;42.768;23.404;2024-02-14T12:03:47;95824.84;;;7.29;100.00
11676;BME280;5894;42.768;23.404;2024-02-14T12:06:14;95823.81;;;7.30;100.00
11676;BME280;5894;42.768;23.404;2024-02-14T12:08:41;95819.81;;;7.37;100.00
11676;BME280;5894;42.768;23.404;2024-02-14T12:11:09;95818.75;;;7.38;100.00
11676;BME280;5894;42.768;23.404;2024-02-14T12:13:36;95819.78;;;7.43;100.00
11676;BME280;5894;42.768;23.404;2024-02-14T12:16:07;95820.25;;;7.50;100.00
11676;BME280;5894;42.768;23.404;2024-02-14T12:18:34;95815.22;;;7.53;100.00
11676;BME280;5894;42.768;23.404;2024-02-14T12:21:06;95812.06;;;7.56;100.00
11676;BME280;5894;42.768;23.404;2024-02-14T12:23:34;95810.41;;;7.65;100.00
11676;BME280;5894;42.768;23.404;2024-02-14T12:26:01;95810.06;;;7.72;100.00
11676;BME280;5894;42.768;23.404;2024-02-14T12:28:30;95805.56;;;7.78;100.00
11676;BME280;5894;42.768;23.404;2024-02-14T12:30:57;95809.47;;;7.80;100.00
11676;BME280;5894;42.768;23.404;2024-02-14T12:33:25;95788.13;;;7.63;100.00
11676;BME280;5894;42.768;23.404;2024-02-14T12:35:54;95814.97;;;7.84;100.00
11676;BME280;5894;42.768;23.404;2024-02-14T12:38:24;95816.25;;;7.86;100.00
11676;BME280;5894;42.768;23.404;2024-02-14T12:40:51;95814.97;;;7.84;100.00
11676;BME280;5894;42.768;23.404;2024-02-14T12:43:19;95813.06;;;7.89;100.00
11676;BME280;5894;42.768;23.404;2024-02-14T12:45:46;95765.81;;;7.60;100.00
11676;BME280;5894;42.768;23.404;2024-02-14T12:48:13;95810.41;;;7.94;100.00
11676;BME280;5894;42.768;23.404;2024-02-14T12:50:41;95811.97;;;7.95;100.00
11676;BME280;5894;42.768;23.404;2024-02-14T12:53:13;95814.06;;;7.93;100.00
11676;BME280;5894;42.768;23.404;2024-02-14T12:55:42;95822.50;;;7.90;100.00
11676;BME280;5894;42.768;23.404;2024-02-14T12:58:09;95822.75;;;7.94;100.00
11676;BME280;5894;42.768;23.404;2024-02-14T13:00:36;95817.44;;;7.99;100.00
11676;BME280;5894;42.768;23.404;2024-02-14T13:03:03;95813.75;;;8.00;100.00